Time;durP1;ratioP1;P1;durP2;ratioP2;P2;SDS_P1;SDS_P2;PMS_P1;PMS_P2;Temp;Humidity;BMP_temperature;BMP_pressure;BME280_temperature;BME280_humidity;BME280_pressure;Samples;Min_cycle;Max_cycle;Signal;HPM_P1;HPM_P2
2022/03/28 04:04:26;;;;;;;17.52;9.52;;;;;;;7.53;49.95;101578.66;5605667;31;79489;-56
2022/03/28 04:07:28;;;;;;;14.27;9.25;;;;;;;7.53;49.95;101578.66;5582906;32;34363;-56
2022/03/28 04:10:31;;;;;;;14.18;8.63;;;;;;;6.97;50.99;101575.38;5583689;31;33542;-56
2022/03/28 04:13:34;;;;;;;15.88;8.98;;;;;;;7.00;50.71;101582.94;5583856;32;33553;-56
2022/03/28 04:16:36;;;;;;;16.35;8.68;;;;;;;7.05;50.58;101576.91;5583667;32;33554;-57
2022/03/28 04:19:39;;;;;;;22.02;9.85;;;;;;;6.92;50.64;101582.44;5583675;31;33293;-57
2022/03/28 04:22:42;;;;;;;21.55;9.10;;;;;;;6.90;50.88;101581.84;5583368;31;33580;-57
2022/03/28 04:25:45;;;;;;;16.83;9.80;;;;;;;7.10;50.20;101578.91;5583519;31;33621;-57
2022/03/28 04:28:47;;;;;;;19.12;9.32;;;;;;;7.17;49.89;101576.97;5566307;32;33612;-57
2022/03/28 04:31:50;;;;;;;19.98;9.45;;;;;;;7.19;49.91;101583.69;5563817;32;33676;-57
2022/03/28 04:34:52;;;;;;;16.20;9.18;;;;;;;7.03;50.27;101581.66;5563889;32;34268;-57
2022/03/28 04:37:55;;;;;;;22.45;9.70;;;;;;;6.92;50.69;101580.59;5565790;32;33229;-57
2022/03/28 04:40:57;;;;;;;17.40;8.57;;;;;;;6.87;50.89;101577.78;5563629;32;33680;-57
2022/03/28 04:43:59;;;;;;;18.95;8.77;;;;;;;6.78;51.10;101584.47;5563553;32;33769;-57
2022/03/28 04:47:02;;;;;;;23.10;9.13;;;;;;;6.93;50.63;101576.06;5563413;32;34037;-57
2022/03/28 04:50:05;;;;;;;13.62;8.27;;;;;;;6.97;50.36;101580.72;5563785;32;33673;-57
2022/03/28 04:53:07;;;;;;;13.57;7.53;;;;;;;6.84;50.38;101575.56;5576950;31;34378;-57
2022/03/28 04:56:10;;;;;;;17.62;8.13;;;;;;;6.93;50.11;101578.75;5580603;31;33287;-57
2022/03/28 04:59:12;;;;;;;14.73;7.40;;;;;;;7.05;49.75;101579.56;5581814;31;33632;-57
2022/03/28 05:02:15;;;;;;;19.45;8.20;;;;;;;7.10;49.27;101577.06;5580694;32;33705;-57
2022/03/28 05:05:17;;;;;;;16.37;7.82;;;;;;;7.04;50.28;101577.97;5582487;32;34267;-57
2022/03/28 05:08:19;;;;;;;15.40;7.62;;;;;;;7.15;49.72;101579.03;5581835;31;34317;-57
2022/03/28 05:11:22;;;;;;;15.60;7.95;;;;;;;7.19;49.69;101580.22;5570877;32;33106;-57
2022/03/28 05:14:25;;;;;;;18.17;8.27;;;;;;;7.21;49.69;101581.59;5575915;31;34288;-57
2022/03/28 05:17:29;;;;;;;18.23;8.68;;;;;;;7.21;50.36;101586.94;5569905;32;33669;-57
2022/03/28 05:20:31;;;;;;;20.00;8.65;;;;;;;7.37;48.70;101590.00;5568773;32;33584;-57
2022/03/28 05:23:34;;;;;;;21.48;8.73;;;;;;;7.49;48.87;101585.50;5567506;32;33720;-57
2022/03/28 05:26:36;;;;;;;18.73;8.35;;;;;;;7.53;48.78;101576.78;5569549;32;34299;-57
2022/03/28 05:29:39;;;;;;;17.10;8.73;;;;;;;7.58;48.94;101577.94;5569451;32;34238;-57
2022/03/28 05:32:42;;;;;;;19.23;8.82;;;;;;;7.66;48.35;101580.28;5568513;32;33309;-57
2022/03/28 05:35:44;;;;;;;18.02;9.07;;;;;;;8.05;47.72;101583.31;5569691;32;33965;-57
2022/03/28 05:38:47;;;;;;;22.10;8.88;;;;;;;8.08;47.19;101589.00;5568261;32;33580;-57
2022/03/28 05:41:49;;;;;;;28.27;10.35;;;;;;;8.18;47.52;101581.22;5569180;32;33720;-57
2022/03/28 05:44:52;;;;;;;20.52;9.70;;;;;;;8.06;47.09;101582.25;5555098;32;34327;-57
2022/03/28 05:47:55;;;;;;;35.45;10.30;;;;;;;8.15;47.41;101580.88;5549961;32;33656;-56
2022/03/28 05:50:57;;;;;;;21.65;9.93;;;;;;;8.21;48.38;101579.91;5565878;32;33753;-57
2022/03/28 05:53:59;;;;;;;19.80;10.10;;;;;;;8.33;48.22;101583.38;5568607;32;34291;-57
2022/03/28 05:57:05;;;;;;;20.42;11.20;;;;;;;8.40;48.23;101577.94;5565686;32;34430;-57
2022/03/28 06:00:09;;;;;;;20.58;10.52;;;;;;;8.66;46.11;101572.03;5555898;32;33716;-57
2022/03/28 06:03:13;;;;;;;25.08;10.25;;;;;;;8.78;46.31;101571.22;5548381;32;35289;-57
2022/03/28 06:06:35;;;;;;;27.95;11.00;;;;;;;8.81;46.74;101571.53;5561003;32;33773;-57
2022/03/28 06:09:38;;;;;;;28.25;11.52;;;;;;;9.02;46.08;101569.22;5566310;32;33558;-57
2022/03/28 06:12:40;;;;;;;18.30;10.63;;;;;;;9.23;46.32;101565.84;5558175;32;33914;-57
2022/03/28 06:15:43;;;;;;;18.48;10.70;;;;;;;9.36;46.26;101570.06;5557594;32;33779;-57
2022/03/28 06:18:46;;;;;;;18.25;10.90;;;;;;;9.63;43.19;101564.88;5560051;32;33315;-57
2022/03/28 06:21:48;;;;;;;22.50;10.95;;;;;;;9.79;41.18;101561.38;5557756;32;33598;-57
2022/03/28 06:24:51;;;;;;;17.73;11.12;;;;;;;9.94;39.61;101551.94;5564147;32;34428;-57
2022/03/28 06:27:53;;;;;;;18.23;10.98;;;;;;;10.16;38.90;101555.44;5567500;32;34424;-57
2022/03/28 06:30:57;;;;;;;19.73;11.50;;;;;;;10.40;38.04;101557.91;5567684;32;34333;-57
2022/03/28 06:34:02;;;;;;;22.65;11.12;;;;;;;10.33;36.28;101555.41;5558326;32;33111;-57
2022/03/28 06:37:04;;;;;;;19.95;10.73;;;;;;;10.33;37.86;101555.41;5566842;32;33492;-56
2022/03/28 06:40:08;;;;;;;15.95;10.52;;;;;;;10.31;37.22;101554.88;5558068;32;33738;-57
2022/03/28 06:43:15;;;;;;;22.23;10.93;;;;;;;10.20;36.59;101553.91;5549968;32;33509;-57
2022/03/28 06:46:17;;;;;;;19.92;10.70;;;;;;;10.53;36.98;101558.34;5568613;32;33351;-57
2022/03/28 06:49:19;;;;;;;23.95;11.15;;;;;;;10.63;36.64;101556.81;5567045;32;33674;-57
2022/03/28 06:52:21;;;;;;;19.95;10.75;;;;;;;10.79;36.56;101553.25;5558229;32;34237;-57
2022/03/28 06:55:24;;;;;;;18.67;10.23;;;;;;;10.93;36.14;101559.03;5567309;32;33885;-56
2022/03/28 06:58:26;;;;;;;17.25;11.25;;;;;;;11.09;36.42;101554.59;5566441;32;33624;-57
2022/03/28 07:01:28;;;;;;;22.00;11.60;;;;;;;10.97;34.85;101549.41;5566472;32;33484;-57
2022/03/28 07:04:31;;;;;;;18.67;10.57;;;;;;;11.22;35.39;101549.63;5557411;32;33756;-57
2022/03/28 07:07:43;;;;;;;22.15;11.15;;;;;;;11.41;33.74;101546.56;5567181;32;34379;-57
2022/03/28 07:10:45;;;;;;;25.23;11.32;;;;;;;11.76;33.20;101544.12;5548929;32;33329;-57
2022/03/28 07:13:48;;;;;;;20.80;11.20;;;;;;;11.71;33.40;101535.22;5564004;32;33565;-57
2022/03/28 07:16:50;;;;;;;18.52;10.50;;;;;;;11.65;33.92;101534.38;5555081;32;33139;-57
2022/03/28 07:19:52;;;;;;;20.58;10.80;;;;;;;11.93;32.90;101535.94;5560849;32;33704;-57
2022/03/28 07:22:56;;;;;;;28.52;11.45;;;;;;;12.07;31.45;101541.63;5568406;32;33728;-57
2022/03/28 07:25:58;;;;;;;19.65;9.50;;;;;;;12.07;31.69;101535.47;5554619;32;33708;-57
2022/03/28 07:29:02;;;;;;;21.25;10.77;;;;;;;11.89;32.32;101529.47;5568174;31;33657;-57
2022/03/28 07:32:05;;;;;;;17.48;10.00;;;;;;;12.05;32.22;101524.94;5565740;32;33644;-57
2022/03/28 07:35:08;;;;;;;21.65;10.38;;;;;;;12.16;31.63;101520.44;5556439;32;34442;-57
2022/03/28 07:38:11;;;;;;;19.15;10.77;;;;;;;12.36;30.33;101523.22;5557555;32;33326;-57
2022/03/28 07:41:18;;;;;;;14.60;9.40;;;;;;;12.48;29.71;101522.16;5566950;32;33609;-57
2022/03/28 07:44:21;;;;;;;19.67;9.50;;;;;;;12.52;30.50;101518.69;5567668;32;33704;-57
2022/03/28 07:47:27;;;;;;;15.18;8.77;;;;;;;12.64;30.28;101519.25;5564122;32;33627;-56
2022/03/28 07:50:30;;;;;;;24.15;9.27;;;;;;;12.63;29.38;101520.31;5567206;32;33594;-57
2022/03/28 07:53:34;;;;;;;24.35;9.13;;;;;;;12.78;29.52;101514.19;5567889;32;34199;-57
2022/03/28 07:56:37;;;;;;;21.00;9.43;;;;;;;12.98;28.97;101515.25;5567244;32;33619;-57
2022/03/28 07:59:44;;;;;;;18.45;9.85;;;;;;;12.91;29.52;101519.03;5568131;32;33614;-57
2022/03/28 08:02:46;;;;;;;22.87;9.95;;;;;;;12.93;29.76;101505.28;5566396;32;33734;-57
2022/03/28 08:05:49;;;;;;;23.25;9.23;;;;;;;13.00;29.14;101507.72;5562915;32;32643;-57
2022/03/28 08:08:51;;;;;;;18.65;8.32;;;;;;;12.90;28.73;101514.72;5565365;32;33170;-57
2022/03/28 08:11:56;;;;;;;21.30;8.38;;;;;;;12.97;29.18;101508.25;5567181;32;34367;-57
2022/03/28 08:14:59;;;;;;;22.17;8.13;;;;;;;13.14;28.62;101498.84;5565085;32;33676;-57
2022/03/28 08:18:02;;;;;;;16.77;8.50;;;;;;;13.38;27.59;101501.03;5561223;32;34386;-57
2022/03/28 08:21:04;;;;;;;27.73;9.23;;;;;;;13.44;27.64;101493.72;5565836;32;33623;-57
2022/03/28 08:24:06;;;;;;;26.50;8.90;;;;;;;13.48;29.51;101486.72;5567042;32;34384;-57
2022/03/28 08:27:08;;;;;;;32.22;9.65;;;;;;;13.62;28.11;101491.25;5557015;32;34357;-57
2022/03/28 08:30:12;;;;;;;18.15;9.00;;;;;;;13.80;27.64;101486.34;5566610;32;34418;-57
2022/03/28 08:33:14;;;;;;;19.10;9.27;;;;;;;13.94;29.44;101473.09;5565441;32;34210;-57
2022/03/28 08:36:17;;;;;;;19.23;8.48;;;;;;;13.98;29.95;101484.97;5567128;32;33510;-62
2022/03/28 08:39:19;;;;;;;20.50;9.20;;;;;;;14.06;30.72;101470.91;5563913;32;33714;-57
2022/03/28 08:42:23;;;;;;;22.77;9.10;;;;;;;14.25;29.80;101471.09;5556242;32;34344;-57
2022/03/28 08:45:27;;;;;;;23.23;9.20;;;;;;;14.33;28.95;101465.09;5556951;32;33571;-57
2022/03/28 08:48:33;;;;;;;36.58;10.02;;;;;;;14.40;29.16;101468.28;5555054;32;33681;-57
2022/03/28 08:51:36;;;;;;;;;;;;;;;14.47;30.43;101463.41;5565749;32;33606;-57
2022/03/28 08:54:38;;;;;;;20.12;9.93;;;;;;;14.62;30.85;101465.22;5566200;32;34107;-57
2022/03/28 08:57:40;;;;;;;39.40;9.77;;;;;;;14.73;31.34;101455.16;5556110;32;33691;-57
2022/03/28 09:00:43;;;;;;;22.08;8.98;;;;;;;14.77;33.09;101458.91;5558960;32;33326;-57
2022/03/28 09:03:47;;;;;;;28.83;10.02;;;;;;;14.92;32.96;101445.28;5566627;32;33850;-57
2022/03/28 09:06:50;;;;;;;22.98;8.45;;;;;;;15.01;32.10;101448.97;5564895;32;34296;-57
2022/03/28 09:10:00;;;;;;;34.72;10.45;;;;;;;14.98;33.14;101446.84;5564236;32;34228;-57
2022/03/28 09:13:11;;;;;;;24.12;9.02;;;;;;;15.13;33.58;101451.31;5559119;32;33756;-57
2022/03/28 09:16:19;;;;;;;18.30;9.07;;;;;;;15.27;33.81;101441.44;5553800;32;33734;-58
2022/03/28 09:20:09;;;;;;;24.87;8.82;;;;;;;15.28;32.98;101437.66;5566195;32;33761;-57
2022/03/28 09:23:29;;;;;;;33.95;10.10;;;;;;;15.33;33.45;101431.41;5561175;32;33709;-57
2022/03/28 09:26:31;;;;;;;21.85;9.20;;;;;;;15.38;33.65;101427.84;5562164;31;33655;-57
2022/03/28 09:29:58;;;;;;;22.27;8.45;;;;;;;15.37;33.67;101424.34;5567192;32;33693;-57
2022/03/28 09:33:00;;;;;;;14.98;7.62;;;;;;;15.43;36.06;101420.47;5559792;32;33801;-57
2022/03/28 09:36:03;;;;;;;63.15;9.85;;;;;;;15.62;34.39;101423.22;5563606;32;34248;-58
2022/03/28 09:39:09;;;;;;;26.48;8.05;;;;;;;15.69;34.73;101409.38;5566248;32;33877;-57
2022/03/28 09:42:11;;;;;;;15.17;7.70;;;;;;;15.80;35.62;101407.38;5563638;32;33773;-57
2022/03/28 09:45:27;;;;;;;13.62;8.18;;;;;;;15.98;36.91;101409.28;5568322;32;33656;-57
2022/03/28 09:48:32;;;;;;;15.20;8.25;;;;;;;16.01;34.92;101399.78;5566515;32;33771;-58
2022/03/28 09:51:35;;;;;;;12.07;7.55;;;;;;;16.03;35.12;101397.62;5562253;32;33750;-57
2022/03/28 09:54:47;;;;;;;12.32;8.13;;;;;;;16.10;35.86;101395.34;5568468;32;34324;-57
2022/03/28 09:57:49;;;;;;;13.05;7.90;;;;;;;16.14;35.17;101382.84;5568357;32;33810;-57
2022/03/28 10:00:51;;;;;;;10.25;7.20;;;;;;;16.27;36.99;101384.81;5561950;32;33854;-57
2022/03/28 10:04:21;;;;;;;12.52;8.13;;;;;;;16.41;35.76;101371.31;5568935;32;33627;-57
2022/03/28 10:07:24;;;;;;;18.30;7.93;;;;;;;16.43;35.66;101369.94;5563189;32;33250;-58
2022/03/28 10:10:26;;;;;;;12.05;7.25;;;;;;;16.53;34.94;101360.06;5552081;32;33602;-58
2022/03/28 10:13:30;;;;;;;11.60;7.10;;;;;;;16.68;36.27;101359.78;5569201;32;34337;-57
2022/03/28 10:16:33;;;;;;;16.60;7.85;;;;;;;16.74;36.42;101353.19;5566677;32;33782;-57
2022/03/28 10:19:39;;;;;;;15.38;7.50;;;;;;;16.80;35.30;101354.72;5568976;32;34348;-57
2022/03/28 10:22:58;;;;;;;12.52;7.90;;;;;;;16.89;35.77;101344.03;5568950;32;34404;-57
2022/03/28 10:26:06;;;;;;;14.55;7.05;;;;;;;16.88;35.22;101339.69;5564519;32;34337;-57
2022/03/28 10:29:12;;;;;;;17.62;8.30;;;;;;;16.82;35.59;101338.16;5561193;32;33759;-57
2022/03/28 10:32:17;;;;;;;9.40;6.75;;;;;;;17.01;35.91;101330.78;5561413;32;33689;-57
2022/03/28 10:35:19;;;;;;;14.70;7.43;;;;;;;17.11;37.10;101324.34;5556838;32;33612;-57
2022/03/28 10:38:22;;;;;;;12.27;7.93;;;;;;;17.17;36.29;101306.09;5559457;32;33684;-58
2022/03/28 10:41:26;;;;;;;17.15;7.18;;;;;;;17.23;35.51;101304.91;5558310;32;34377;-57
2022/03/28 10:44:45;;;;;;;12.05;7.10;;;;;;;17.18;35.61;101297.66;5563370;32;33681;-58
2022/03/28 10:47:53;;;;;;;10.85;7.55;;;;;;;17.23;36.00;101292.16;5553732;32;33225;-57
2022/03/28 10:51:02;;;;;;;12.37;7.45;;;;;;;17.29;36.04;101274.69;5552323;32;33713;-58
2022/03/28 10:54:06;;;;;;;13.02;8.55;;;;;;;17.36;36.18;101279.69;5561266;32;33974;-58
2022/03/28 10:57:27;;;;;;;12.93;6.62;;;;;;;17.34;36.01;101271.84;5558629;32;33836;-58
2022/03/28 11:00:30;;;;;;;10.95;6.28;;;;;;;17.43;36.83;101261.09;5554513;32;33609;-58
2022/03/28 11:03:36;;;;;;;10.05;6.47;;;;;;;17.49;36.48;101262.59;5562125;32;33787;-58
2022/03/28 11:06:45;;;;;;;11.93;6.57;;;;;;;17.47;35.76;101245.03;5563107;32;34463;-58
2022/03/28 11:09:50;;;;;;;18.83;8.20;;;;;;;17.54;36.48;101253.53;5561258;32;33726;-58
2022/03/28 11:13:16;;;;;;;16.48;7.53;;;;;;;17.55;36.29;101239.69;5564388;32;33783;-58
2022/03/28 11:16:19;;;;;;;11.48;6.80;;;;;;;17.61;36.29;101238.47;5562125;32;33701;-57
2022/03/28 11:19:35;;;;;;;14.50;6.82;;;;;;;17.66;36.63;101224.00;5557232;32;33679;-57
2022/03/28 11:22:42;;;;;;;13.15;6.40;;;;;;;17.76;36.73;101215.63;5565903;32;33714;-58
2022/03/28 11:25:52;;;;;;;13.10;6.60;;;;;;;17.80;36.24;101215.81;5556226;32;33812;-58
2022/03/28 11:28:55;;;;;;;12.20;6.10;;;;;;;17.83;35.84;101199.72;5562204;32;33386;-58
2022/03/28 11:32:04;;;;;;;19.50;6.60;;;;;;;17.90;36.58;101193.06;5568093;32;34393;-58
2022/03/28 11:35:10;;;;;;;11.23;6.10;;;;;;;18.02;36.59;101185.19;5560376;32;33863;-58
2022/03/28 11:38:13;;;;;;;10.18;6.72;;;;;;;17.99;36.36;101178.44;5562556;32;33719;-58
2022/03/28 11:41:17;;;;;;;13.88;6.18;;;;;;;17.97;35.67;101167.09;5559277;32;33747;-58
2022/03/28 11:44:19;;;;;;;11.50;6.07;;;;;;;18.10;36.58;101157.28;5556770;32;34003;-58
2022/03/28 11:47:22;;;;;;;12.88;6.00;;;;;;;18.26;36.20;101154.97;5553978;32;33667;-58
2022/03/28 11:50:30;;;;;;;7.65;5.68;;;;;;;18.27;36.33;101151.13;5556819;32;33199;-58
2022/03/28 11:53:32;;;;;;;8.48;5.95;;;;;;;18.29;36.70;101135.34;5559366;32;34118;-58
2022/03/28 11:59:57;;;;;;;8.38;5.90;;;;;;;18.39;36.30;101112.53;5562314;32;33831;-58
2022/03/28 12:03:00;;;;;;;10.60;6.30;;;;;;;18.43;36.31;101110.78;5556110;32;33621;-58
2022/03/28 12:06:05;;;;;;;11.77;5.82;;;;;;;18.42;35.91;101109.19;5562172;32;34333;-58
2022/03/28 12:09:07;;;;;;;8.55;6.25;;;;;;;18.36;36.02;101088.75;5564040;32;34536;-58
2022/03/28 12:12:11;;;;;;;10.35;5.87;;;;;;;18.36;36.24;101091.47;5557535;32;33787;-58
2022/03/28 12:15:32;;;;;;;16.02;7.03;;;;;;;18.38;36.88;101079.19;5560298;32;33867;-58
2022/03/28 12:18:34;;;;;;;11.88;6.60;;;;;;;18.46;36.18;101078.38;5556616;32;33738;-58
2022/03/28 12:21:36;;;;;;;11.00;7.28;;;;;;;18.53;37.36;101076.00;5558415;32;33250;-58
2022/03/28 12:24:51;;;;;;;13.62;6.93;;;;;;;18.60;36.33;101064.66;5559080;32;33829;-58
2022/03/28 12:27:56;;;;;;;9.63;7.27;;;;;;;18.70;36.10;101058.94;5558781;32;34249;-58
2022/03/28 12:31:02;;;;;;;10.85;6.85;;;;;;;18.77;35.33;101053.06;5558649;32;34380;-58
2022/03/28 12:34:06;;;;;;;13.93;7.62;;;;;;;18.80;36.25;101046.97;5558316;32;34304;-58
2022/03/28 12:37:15;;;;;;;12.23;8.38;;;;;;;18.85;34.88;101046.03;5561585;32;33728;-58
2022/03/28 12:40:25;;;;;;;12.57;7.62;;;;;;;18.89;34.75;101036.13;5565748;32;33640;-58
2022/03/28 12:43:29;;;;;;;12.73;7.50;;;;;;;19.00;37.06;101023.81;5560486;32;33745;-58
2022/03/28 12:46:31;;;;;;;11.27;7.80;;;;;;;18.94;34.98;101006.06;5567594;32;33967;-58
2022/03/28 12:49:43;;;;;;;11.43;6.90;;;;;;;18.91;34.70;101018.41;5560600;32;34425;-58
2022/03/28 12:52:46;;;;;;;12.07;7.20;;;;;;;18.94;36.25;101000.63;5564197;32;33352;-58
2022/03/28 12:55:49;;;;;;;11.93;7.28;;;;;;;18.98;34.92;100977.94;5567986;32;34174;-58
2022/03/28 12:58:59;;;;;;;16.05;7.18;;;;;;;19.01;34.68;100988.19;5570056;32;33586;-57
2022/03/28 13:02:13;;;;;;;17.23;7.93;;;;;;;19.08;34.21;100976.81;5563188;32;33597;-58
2022/03/28 13:05:16;;;;;;;10.60;6.82;;;;;;;19.11;34.28;100968.03;5568878;32;33745;-58
2022/03/28 13:08:18;;;;;;;12.55;7.12;;;;;;;19.12;35.81;100963.38;5569243;32;34385;-58
2022/03/28 13:11:21;;;;;;;10.18;7.55;;;;;;;19.14;34.18;100953.78;5569436;32;33372;-58
2022/03/28 13:14:27;;;;;;;11.18;6.90;;;;;;;19.17;34.97;100946.88;5570137;32;33219;-58
2022/03/28 13:17:29;;;;;;;11.10;7.10;;;;;;;19.20;34.41;100932.66;5569528;32;33775;-58
2022/03/28 13:20:32;;;;;;;16.17;7.78;;;;;;;19.27;34.31;100943.84;5570047;32;33607;-58
2022/03/28 13:23:34;;;;;;;14.57;7.15;;;;;;;19.36;34.62;100924.75;5569389;32;33976;-57
2022/03/28 13:26:45;;;;;;;12.60;7.45;;;;;;;19.40;34.08;100922.97;5569097;32;34391;-58
2022/03/28 13:29:47;;;;;;;13.90;7.40;;;;;;;19.43;34.84;100919.59;5561143;32;33685;-58
2022/03/28 13:32:50;;;;;;;13.57;6.35;;;;;;;19.44;34.25;100903.00;5556620;32;34363;-58
2022/03/28 13:35:54;;;;;;;15.98;7.43;;;;;;;19.48;35.53;100901.19;5563219;32;34403;-58
2022/03/28 13:38:56;;;;;;;17.37;6.85;;;;;;;19.60;34.31;100892.34;5569284;32;33884;-58
2022/03/28 13:41:59;;;;;;;16.05;7.45;;;;;;;19.62;35.12;100879.22;5560730;32;33758;-58
2022/03/28 13:45:01;;;;;;;17.23;7.70;;;;;;;19.58;34.23;100888.37;5560499;32;34356;-58
2022/03/28 13:48:06;;;;;;;15.02;7.70;;;;;;;19.59;33.87;100876.34;5567723;32;33846;-58
2022/03/28 13:51:09;;;;;;;39.88;9.38;;;;;;;19.60;33.95;100876.03;5561450;32;33701;-57
2022/03/28 13:54:31;;;;;;;12.40;6.87;;;;;;;19.64;33.63;100868.03;5558927;32;34300;-58
2022/03/28 13:57:33;;;;;;;15.63;7.57;;;;;;;19.69;35.27;100855.03;5566996;32;33722;-58
2022/03/28 14:00:49;;;;;;;21.52;8.45;;;;;;;19.71;33.30;100852.78;5569011;32;34321;-58
2022/03/28 14:03:52;;;;;;;10.15;7.32;;;;;;;19.67;33.35;100837.47;5569027;32;33719;-57
2022/03/28 14:06:55;;;;;;;20.62;8.30;;;;;;;19.68;33.32;100830.91;5561329;32;34431;-57
2022/03/28 14:09:57;;;;;;;17.12;7.90;;;;;;;19.69;33.66;100824.31;5566343;32;34886;-58
2022/03/28 14:12:59;;;;;;;11.32;8.30;;;;;;;19.73;32.95;100824.44;5566324;32;34289;-58
2022/03/28 14:16:03;;;;;;;15.27;8.18;;;;;;;19.74;32.89;100823.34;5569142;32;34466;-58
2022/03/28 14:19:06;;;;;;;23.62;9.10;;;;;;;19.75;32.84;100805.88;5568616;32;33827;-57
2022/03/28 14:22:08;;;;;;;14.30;7.85;;;;;;;19.79;32.67;100804.09;5566484;32;33789;-58
2022/03/28 14:25:11;;;;;;;18.02;8.07;;;;;;;19.77;33.47;100795.44;5568557;32;33752;-58
2022/03/28 14:28:13;;;;;;;25.88;8.85;;;;;;;19.77;33.03;100782.69;5563662;32;33747;-57
2022/03/28 14:31:15;;;;;;;11.38;8.90;;;;;;;19.80;33.71;100773.03;5564162;32;33714;-58
2022/03/28 14:34:18;;;;;;;16.58;8.70;;;;;;;19.86;32.38;100779.87;5566379;32;33669;-58
2022/03/28 14:37:21;;;;;;;13.75;8.35;;;;;;;19.86;32.44;100772.50;5566873;32;33711;-57
2022/03/28 14:40:24;;;;;;;16.75;8.57;;;;;;;19.87;32.33;100760.50;5569054;32;33728;-58
2022/03/28 14:43:26;;;;;;;13.00;7.97;;;;;;;19.90;32.13;100767.19;5568852;32;33745;-57
2022/03/28 14:49:50;;;;;;;17.58;8.95;;;;;;;19.82;32.03;100752.53;5557685;32;33685;-58
2022/03/28 14:52:52;;;;;;;15.85;8.05;;;;;;;19.87;32.01;100738.75;5566408;32;33679;-58
2022/03/28 14:55:54;;;;;;;11.63;8.90;;;;;;;19.86;32.09;100745.28;5568318;32;34160;-58
2022/03/28 14:59:17;;;;;;;13.48;9.00;;;;;;;19.93;32.07;100744.75;5565938;32;34318;-58
2022/03/28 15:05:35;;;;;;;16.75;9.20;;;;;;;19.87;31.97;100741.47;5568945;32;33464;-58
2022/03/28 15:08:37;;;;;;;16.52;9.48;;;;;;;19.88;31.72;100736.81;5568745;32;34361;-57
2022/03/28 15:11:41;;;;;;;14.23;8.98;;;;;;;19.86;32.01;100736.34;5565840;32;34494;-58
2022/03/28 15:14:43;;;;;;;13.20;8.60;;;;;;;19.87;31.71;100727.06;5566780;32;33629;-58
2022/03/28 15:17:45;;;;;;;10.93;7.97;;;;;;;19.86;32.05;100723.53;5568772;32;33764;-58
2022/03/28 15:20:47;;;;;;;12.05;8.80;;;;;;;19.88;33.43;100723.22;5569004;32;34261;-58
2022/03/28 15:23:50;;;;;;;14.82;8.63;;;;;;;19.86;31.64;100715.34;5568376;32;34380;-58
2022/03/28 15:26:55;;;;;;;13.32;8.20;;;;;;;19.83;31.57;100715.25;5567582;32;34383;-58
2022/03/28 15:29:57;;;;;;;13.18;9.15;;;;;;;19.82;31.71;100708.22;5568680;32;33812;-58
2022/03/28 15:33:00;;;;;;;11.95;8.02;;;;;;;19.83;32.36;100701.63;5567207;32;34223;-58
2022/03/28 15:36:02;;;;;;;11.73;8.35;;;;;;;19.77;31.91;100690.19;5568456;32;33718;-57
2022/03/28 15:39:05;;;;;;;15.15;8.90;;;;;;;19.79;32.20;100689.84;5549767;32;33952;-58
2022/03/28 15:42:08;;;;;;;13.20;8.27;;;;;;;19.79;32.55;100687.91;5559580;32;33834;-58
2022/03/28 15:45:10;;;;;;;10.45;8.35;;;;;;;19.73;32.57;100691.16;5566998;32;33799;-58
2022/03/28 15:48:13;;;;;;;16.90;9.25;;;;;;;19.67;32.42;100683.22;5565354;32;33670;-58
2022/03/28 15:51:15;;;;;;;15.38;8.48;;;;;;;19.67;32.02;100682.44;5568475;32;34267;-58
